sensor_id;sensor_type;location;lat;lon;timestamp;pressure;altitude;pressure_sealevel;temperature;humidity
84136;BME280;74238;50.566;7.262;2023-12-29T00:00:29;100655.06;;;8.72;69.55
84136;BME280;74238;50.566;7.262;2023-12-29T00:02:54;100627.94;;;8.60;69.09
84136;BME280;74238;50.566;7.262;2023-12-29T00:05:19;100655.94;;;8.72;68.83
84136;BME280;74238;50.566;7.262;2023-12-29T00:07:45;100584.19;;;8.38;70.26
84136;BME280;74238;50.566;7.262;2023-12-29T00:10:10;100609.53;;;8.54;70.23
84136;BME280;74238;50.566;7.262;2023-12-29T00:12:35;100597.31;;;8.44;69.23
84136;BME280;74238;50.566;7.262;2023-12-29T00:15:01;100617.41;;;8.59;70.15
84136;BME280;74238;50.566;7.262;2023-12-29T00:17:26;100656.75;;;8.79;69.02
84136;BME280;74238;50.566;7.262;2023-12-29T00:19:52;100661.16;;;8.80;70.59
84136;BME280;74238;50.566;7.262;2023-12-29T00:22:18;100612.13;;;8.62;69.43
84136;BME280;74238;50.566;7.262;2023-12-29T00:24:44;100658.47;;;8.89;70.61
84136;BME280;74238;50.566;7.262;2023-12-29T00:27:10;100668.97;;;8.94;70.40
84136;BME280;74238;50.566;7.262;2023-12-29T00:29:36;100634.00;;;8.75;69.93
84136;BME280;74238;50.566;7.262;2023-12-29T00:32:19;100658.41;;;8.95;68.99
84136;BME280;74238;50.566;7.262;2023-12-29T00:34:44;100663.66;;;8.95;69.79
84136;BME280;74238;50.566;7.262;2023-12-29T00:37:10;100655.78;;;8.95;70.46
84136;BME280;74238;50.566;7.262;2023-12-29T00:39:35;100652.22;;;9.01;69.27
84136;BME280;74238;50.566;7.262;2023-12-29T00:42:07;100645.19;;;9.03;69.25
84136;BME280;74238;50.566;7.262;2023-12-29T00:44:33;100636.38;;;9.05;70.66
84136;BME280;74238;50.566;7.262;2023-12-29T00:46:59;100633.72;;;9.08;68.95
84136;BME280;74238;50.566;7.262;2023-12-29T00:49:27;100572.50;;;8.83;69.78
84136;BME280;74238;50.566;7.262;2023-12-29T00:51:52;100576.84;;;8.89;69.82
84136;BME280;74238;50.566;7.262;2023-12-29T00:54:18;100607.38;;;9.10;70.03
84136;BME280;74238;50.566;7.262;2023-12-29T00:56:50;100610.91;;;9.06;69.37
84136;BME280;74238;50.566;7.262;2023-12-29T00:59:16;100584.72;;;8.89;69.57
84136;BME280;74238;50.566;7.262;2023-12-29T01:01:41;100620.56;;;9.10;69.42
84136;BME280;74238;50.566;7.262;2023-12-29T01:04:06;100614.44;;;9.09;69.35
84136;BME280;74238;50.566;7.262;2023-12-29T01:06:32;100607.38;;;9.08;70.50
84136;BME280;74238;50.566;7.262;2023-12-29T01:08:57;100490.38;;;8.40;69.94
84136;BME280;74238;50.566;7.262;2023-12-29T01:11:22;100525.28;;;8.63;69.53
84136;BME280;74238;50.566;7.262;2023-12-29T01:13:48;100597.75;;;9.07;69.48
84136;BME280;74238;50.566;7.262;2023-12-29T01:16:13;100596.84;;;9.10;69.64
84136;BME280;74238;50.566;7.262;2023-12-29T01:18:38;100582.84;;;9.03;69.32
84136;BME280;74238;50.566;7.262;2023-12-29T01:21:04;100532.19;;;8.77;69.56
84136;BME280;74238;50.566;7.262;2023-12-29T01:23:29;100581.00;;;9.16;70.19
84136;BME280;74238;50.566;7.262;2023-12-29T01:25:54;100583.63;;;9.18;70.78
84136;BME280;74238;50.566;7.262;2023-12-29T01:28:19;100533.84;;;8.87;69.60
84136;BME280;74238;50.566;7.262;2023-12-29T01:30:45;100527.72;;;8.88;70.36
84136;BME280;74238;50.566;7.262;2023-12-29T01:33:10;100587.94;;;9.25;70.26
84136;BME280;74238;50.566;7.262;2023-12-29T01:35:35;100573.91;;;9.20;69.77
84136;BME280;74238;50.566;7.262;2023-12-29T01:38:02;100545.88;;;9.16;68.96
84136;BME280;74238;50.566;7.262;2023-12-29T01:40:28;100584.25;;;9.41;70.29
84136;BME280;74238;50.566;7.262;2023-12-29T01:42:53;100586.00;;;9.42;68.73
84136;BME280;74238;50.566;7.262;2023-12-29T01:45:21;100599.09;;;9.51;69.31
84136;BME280;74238;50.566;7.262;2023-12-29T01:47:48;100598.22;;;9.49;68.80
84136;BME280;74238;50.566;7.262;2023-12-29T01:50:14;100593.75;;;9.59;69.24
84136;BME280;74238;50.566;7.262;2023-12-29T01:52:42;100533.44;;;9.30;68.60
84136;BME280;74238;50.566;7.262;2023-12-29T01:55:10;100573.56;;;9.57;67.64
84136;BME280;74238;50.566;7.262;2023-12-29T01:57:37;100552.59;;;9.47;69.26
84136;BME280;74238;50.566;7.262;2023-12-29T02:00:04;100563.91;;;9.54;68.06
84136;BME280;74238;50.566;7.262;2023-12-29T02:02:34;100584.00;;;9.66;69.29
84136;BME280;74238;50.566;7.262;2023-12-29T02:04:59;100556.09;;;9.46;68.03
84136;BME280;74238;50.566;7.262;2023-12-29T02:07:27;100590.16;;;9.66;67.95
84136;BME280;74238;50.566;7.262;2023-12-29T02:09:56;100564.91;;;9.45;68.94
84136;BME280;74238;50.566;7.262;2023-12-29T02:12:22;100539.50;;;9.40;68.89
84136;BME280;74238;50.566;7.262;2023-12-29T02:14:48;100597.97;;;9.74;69.07
84136;BME280;74238;50.566;7.262;2023-12-29T02:17:26;100603.16;;;9.83;67.02
84136;BME280;74238;50.566;7.262;2023-12-29T02:19:52;100596.06;;;9.88;67.28
84136;BME280;74238;50.566;7.262;2023-12-29T02:22:18;100528.75;;;9.55;67.99
84136;BME280;74238;50.566;7.262;2023-12-29T02:24:47;100550.63;;;9.65;67.68
84136;BME280;74238;50.566;7.262;2023-12-29T02:30:10;100574.91;;;9.91;67.45
84136;BME280;74238;50.566;7.262;2023-12-29T02:32:42;100538.22;;;9.73;67.82
84136;BME280;74238;50.566;7.262;2023-12-29T02:35:14;100573.97;;;9.95;67.32
84136;BME280;74238;50.566;7.262;2023-12-29T02:37:40;100557.28;;;9.96;67.38
84136;BME280;74238;50.566;7.262;2023-12-29T02:40:07;100558.13;;;9.97;68.18
84136;BME280;74238;50.566;7.262;2023-12-29T02:42:33;100557.22;;;9.99;67.55
84136;BME280;74238;50.566;7.262;2023-12-29T02:44:58;100553.69;;;10.01;68.17
84136;BME280;74238;50.566;7.262;2023-12-29T02:47:24;100551.03;;;10.02;67.50
84136;BME280;74238;50.566;7.262;2023-12-29T02:49:49;100535.41;;;9.87;66.91
84136;BME280;74238;50.566;7.262;2023-12-29T02:52:15;100562.41;;;10.07;68.20
84136;BME280;74238;50.566;7.262;2023-12-29T02:54:40;100565.00;;;10.10;67.16
84136;BME280;74238;50.566;7.262;2023-12-29T02:57:06;100565.81;;;10.14;66.71
84136;BME280;74238;50.566;7.262;2023-12-29T02:59:31;100529.09;;;9.98;67.84
84136;BME280;74238;50.566;7.262;2023-12-29T03:01:56;100550.88;;;10.14;67.65
84136;BME280;74238;50.566;7.262;2023-12-29T03:04:22;100533.50;;;9.99;67.52
84136;BME280;74238;50.566;7.262;2023-12-29T03:06:47;100528.22;;;9.99;67.11
84136;BME280;74238;50.566;7.262;2023-12-29T03:09:13;100549.09;;;10.15;66.84
84136;BME280;74238;50.566;7.262;2023-12-29T03:11:38;100536.91;;;10.06;66.88
84136;BME280;74238;50.566;7.262;2023-12-29T03:14:03;100546.44;;;10.18;68.00
84136;BME280;74238;50.566;7.262;2023-12-29T03:16:28;100534.97;;;10.17;67.42
84136;BME280;74238;50.566;7.262;2023-12-29T03:18:54;100520.22;;;10.07;67.96
84136;BME280;74238;50.566;7.262;2023-12-29T03:21:19;100503.72;;;9.91;68.06
84136;BME280;74238;50.566;7.262;2023-12-29T03:23:44;100487.94;;;9.87;67.75
84136;BME280;74238;50.566;7.262;2023-12-29T03:26:10;100543.81;;;10.18;66.83
84136;BME280;74238;50.566;7.262;2023-12-29T03:28:35;100517.56;;;10.06;67.73
84136;BME280;74238;50.566;7.262;2023-12-29T03:31:00;100487.94;;;9.87;66.91
84136;BME280;74238;50.566;7.262;2023-12-29T03:33:26;100501.84;;;9.98;67.63
84136;BME280;74238;50.566;7.262;2023-12-29T03:35:51;100466.06;;;9.80;66.31
84136;BME280;74238;50.566;7.262;2023-12-29T03:38:16;100544.53;;;10.29;67.59
84136;BME280;74238;50.566;7.262;2023-12-29T03:40:42;100499.00;;;10.13;67.36
84136;BME280;74238;50.566;7.262;2023-12-29T03:43:07;100475.38;;;10.04;66.49
84136;BME280;74238;50.566;7.262;2023-12-29T03:45:32;100519.88;;;10.32;66.90
84136;BME280;74238;50.566;7.262;2023-12-29T03:47:58;100514.50;;;10.36;66.99
84136;BME280;74238;50.566;7.262;2023-12-29T03:50:23;100487.38;;;10.28;66.24
84136;BME280;74238;50.566;7.262;2023-12-29T03:52:48;100458.63;;;10.08;66.68
84136;BME280;74238;50.566;7.262;2023-12-29T03:55:14;100499.69;;;10.29;65.95
84136;BME280;74238;50.566;7.262;2023-12-29T03:57:42;100465.66;;;10.08;66.29
84136;BME280;74238;50.566;7.262;2023-12-29T04:00:11;100510.09;;;10.40;66.71
84136;BME280;74238;50.566;7.262;2023-12-29T04:02:37;100513.59;;;10.39;65.98
84136;BME280;74238;50.566;7.262;2023-12-29T04:05:02;100487.50;;;10.17;67.11
84136;BME280;74238;50.566;7.262;2023-12-29T04:07:27;100527.72;;;10.36;66.02
84136;BME280;74238;50.566;7.262;2023-12-29T04:09:53;100476.13;;;10.12;66.32
84136;BME280;74238;50.566;7.262;2023-12-29T04:12:18;100504.06;;;10.30;66.31
84136;BME280;74238;50.566;7.262;2023-12-29T04:14:43;100481.44;;;10.11;66.97
84136;BME280;74238;50.566;7.262;2023-12-29T04:17:09;100519.78;;;10.36;66.40
84136;BME280;74238;50.566;7.262;2023-12-29T04:19:40;100508.41;;;10.34;66.17
84136;BME280;74238;50.566;7.262;2023-12-29T04:22:06;100520.63;;;10.40;67.04
84136;BME280;74238;50.566;7.262;2023-12-29T04:24:32;100476.97;;;10.16;66.30
84136;BME280;74238;50.566;7.262;2023-12-29T04:26:58;100478.72;;;10.18;66.77
84136;BME280;74238;50.566;7.262;2023-12-29T04:29:23;100522.38;;;10.41;67.00
84136;BME280;74238;50.566;7.262;2023-12-29T04:31:48;100514.38;;;10.46;66.39
84136;BME280;74238;50.566;7.262;2023-12-29T04:34:16;100510.00;;;10.45;66.48
84136;BME280;74238;50.566;7.262;2023-12-29T04:36:41;100501.19;;;10.44;67.60
84136;BME280;74238;50.566;7.262;2023-12-29T04:39:07;100507.38;;;10.43;67.45
84136;BME280;74238;50.566;7.262;2023-12-29T04:41:34;100476.81;;;10.28;67.32
84136;BME280;74238;50.566;7.262;2023-12-29T04:44:00;100465.50;;;10.18;66.82
84136;BME280;74238;50.566;7.262;2023-12-29T04:46:25;100492.59;;;10.33;67.20
84136;BME280;74238;50.566;7.262;2023-12-29T04:48:51;100462.00;;;10.18;67.71
84136;BME280;74238;50.566;7.262;2023-12-29T04:51:16;100508.25;;;10.42;68.22
84136;BME280;74238;50.566;7.262;2023-12-29T04:53:41;100457.66;;;10.14;68.33
84136;BME280;74238;50.566;7.262;2023-12-29T04:56:07;100465.56;;;10.15;68.44
84136;BME280;74238;50.566;7.262;2023-12-29T04:58:32;100476.94;;;10.17;68.53
84136;BME280;74238;50.566;7.262;2023-12-29T05:00:57;100498.63;;;10.39;67.61
84136;BME280;74238;50.566;7.262;2023-12-29T05:03:22;100469.06;;;10.16;67.78
84136;BME280;74238;50.566;7.262;2023-12-29T05:05:48;100494.38;;;10.31;68.80
84136;BME280;74238;50.566;7.262;2023-12-29T05:08:13;100468.16;;;10.18;68.22
84136;BME280;74238;50.566;7.262;2023-12-29T05:10:38;100444.56;;;10.06;68.75
84136;BME280;74238;50.566;7.262;2023-12-29T05:13:04;100458.56;;;10.13;68.06
84136;BME280;74238;50.566;7.262;2023-12-29T05:15:29;100407.91;;;9.89;69.16
84136;BME280;74238;50.566;7.262;2023-12-29T05:17:54;100475.88;;;10.32;69.32
84136;BME280;74238;50.566;7.262;2023-12-29T05:20:20;100427.13;;;9.97;68.95
84136;BME280;74238;50.566;7.262;2023-12-29T05:22:45;100481.22;;;10.29;69.11
84136;BME280;74238;50.566;7.262;2023-12-29T05:25:10;100451.34;;;10.24;68.57
84136;BME280;74238;50.566;7.262;2023-12-29T05:27:36;100465.41;;;10.26;69.50
84136;BME280;74238;50.566;7.262;2023-12-29T05:30:01;100461.91;;;10.24;68.40
84136;BME280;74238;50.566;7.262;2023-12-29T05:32:26;100441.94;;;10.06;68.69
84136;BME280;74238;50.566;7.262;2023-12-29T05:34:52;100423.72;;;9.89;69.73
84136;BME280;74238;50.566;7.262;2023-12-29T05:37:17;100474.41;;;10.13;68.93
84136;BME280;74238;50.566;7.262;2023-12-29T05:39:43;100497.19;;;10.17;68.81
84136;BME280;74238;50.566;7.262;2023-12-29T05:42:08;100460.56;;;9.95;68.87
84136;BME280;74238;50.566;7.262;2023-12-29T05:44:36;100498.03;;;10.17;69.24
84136;BME280;74238;50.566;7.262;2023-12-29T05:47:02;100465.88;;;9.92;69.94
84136;BME280;74238;50.566;7.262;2023-12-29T05:49:28;100459.75;;;9.92;69.69
84136;BME280;74238;50.566;7.262;2023-12-29T05:51:53;100479.88;;;9.99;68.69
84136;BME280;74238;50.566;7.262;2023-12-29T05:54:19;100512.09;;;10.21;68.94
84136;BME280;74238;50.566;7.262;2023-12-29T05:56:44;100526.16;;;10.21;68.78
84136;BME280;74238;50.566;7.262;2023-12-29T05:59:09;100485.19;;;9.94;69.12
84136;BME280;74238;50.566;7.262;2023-12-29T06:01:35;100527.00;;;10.22;69.50
84136;BME280;74238;50.566;7.262;2023-12-29T06:04:00;100520.00;;;10.21;68.96
84136;BME280;74238;50.566;7.262;2023-12-29T06:06:25;100523.53;;;10.20;70.10
84136;BME280;74238;50.566;7.262;2023-12-29T06:08:51;100514.00;;;10.10;69.91
84136;BME280;74238;50.566;7.262;2023-12-29T06:11:16;100527.91;;;10.21;69.08
84136;BME280;74238;50.566;7.262;2023-12-29T06:13:42;100533.16;;;10.23;69.80
84136;BME280;74238;50.566;7.262;2023-12-29T06:16:07;100541.94;;;10.25;69.85
84136;BME280;74238;50.566;7.262;2023-12-29T06:18:33;100479.06;;;9.94;69.06
84136;BME280;74238;50.566;7.262;2023-12-29T06:20:58;100466.88;;;9.84;69.40
84136;BME280;74238;50.566;7.262;2023-12-29T06:23:24;100529.59;;;10.27;70.25
84136;BME280;74238;50.566;7.262;2023-12-29T06:25:50;100527.13;;;10.16;69.05
84136;BME280;74238;50.566;7.262;2023-12-29T06:28:16;100529.66;;;10.24;70.16
84136;BME280;74238;50.566;7.262;2023-12-29T06:30:41;100497.38;;;10.05;69.23
84136;BME280;74238;50.566;7.262;2023-12-29T06:33:07;100502.56;;;10.11;69.97
84136;BME280;74238;50.566;7.262;2023-12-29T06:35:33;100511.25;;;10.17;69.77
84136;BME280;74238;50.566;7.262;2023-12-29T06:38:01;100500.72;;;10.16;69.81
84136;BME280;74238;50.566;7.262;2023-12-29T06:40:27;100487.66;;;10.08;69.76
84136;BME280;74238;50.566;7.262;2023-12-29T06:42:52;100512.88;;;10.29;70.60
84136;BME280;74238;50.566;7.262;2023-12-29T06:45:17;100517.28;;;10.29;70.69
84136;BME280;74238;50.566;7.262;2023-12-29T06:47:43;100509.34;;;10.30;70.74
84136;BME280;74238;50.566;7.262;2023-12-29T06:50:08;100456.94;;;10.03;69.97
84136;BME280;74238;50.566;7.262;2023-12-29T06:52:38;100492.75;;;10.19;70.82
84136;BME280;74238;50.566;7.262;2023-12-29T06:55:03;100496.38;;;10.12;69.88
84136;BME280;74238;50.566;7.262;2023-12-29T06:57:29;100505.91;;;10.24;71.02
84136;BME280;74238;50.566;7.262;2023-12-29T06:59:54;100511.13;;;10.28;70.49
84136;BME280;74238;50.566;7.262;2023-12-29T07:02:20;100477.03;;;10.11;70.11
84136;BME280;74238;50.566;7.262;2023-12-29T07:04:45;100470.09;;;10.06;69.91
84136;BME280;74238;50.566;7.262;2023-12-29T07:07:11;100476.28;;;10.05;70.86
84136;BME280;74238;50.566;7.262;2023-12-29T07:09:38;100487.66;;;10.07;70.33
84136;BME280;74238;50.566;7.262;2023-12-29T07:12:04;100521.69;;;10.25;70.31
84136;BME280;74238;50.566;7.262;2023-12-29T07:14:30;100479.72;;;10.10;71.19
84136;BME280;74238;50.566;7.262;2023-12-29T07:16:55;100483.19;;;10.12;71.21
84136;BME280;74238;50.566;7.262;2023-12-29T07:19:20;100499.75;;;10.21;71.50
84136;BME280;74238;50.566;7.262;2023-12-29T07:21:46;100502.41;;;10.20;70.52
84136;BME280;74238;50.566;7.262;2023-12-29T07:24:11;100500.69;;;10.19;71.55
84136;BME280;74238;50.566;7.262;2023-12-29T07:26:36;100497.13;;;10.20;70.83
84136;BME280;74238;50.566;7.262;2023-12-29T07:29:02;100493.63;;;10.21;71.27
84136;BME280;74238;50.566;7.262;2023-12-29T07:31:27;100475.28;;;10.12;72.37
84136;BME280;74238;50.566;7.262;2023-12-29T07:33:52;100475.25;;;10.13;71.08
84136;BME280;74238;50.566;7.262;2023-12-29T07:36:18;100483.28;;;10.07;71.81
84136;BME280;74238;50.566;7.262;2023-12-29T07:38:43;100459.75;;;9.92;72.46
84136;BME280;74238;50.566;7.262;2023-12-29T07:41:09;100474.59;;;9.97;72.64
84136;BME280;74238;50.566;7.262;2023-12-29T07:43:35;100488.66;;;9.98;71.77
84136;BME280;74238;50.566;7.262;2023-12-29T07:46:01;100484.38;;;9.91;73.19
84136;BME280;74238;50.566;7.262;2023-12-29T07:48:26;100461.66;;;9.81;73.18
84136;BME280;74238;50.566;7.262;2023-12-29T07:50:55;100497.53;;;9.92;73.28
84136;BME280;74238;50.566;7.262;2023-12-29T07:53:23;100464.41;;;9.73;72.70
84136;BME280;74238;50.566;7.262;2023-12-29T07:55:49;100474.72;;;9.90;73.45
84136;BME280;74238;50.566;7.262;2023-12-29T07:58:15;100477.38;;;9.88;73.98
84136;BME280;74238;50.566;7.262;2023-12-29T08:00:40;100435.59;;;9.58;73.61
84136;BME280;74238;50.566;7.262;2023-12-29T08:03:06;100426.81;;;9.57;73.40
84136;BME280;74238;50.566;7.262;2023-12-29T08:05:32;100493.22;;;9.87;73.77
84136;BME280;74238;50.566;7.262;2023-12-29T08:07:57;100477.38;;;9.87;73.52
84136;BME280;74238;50.566;7.262;2023-12-29T08:10:23;100486.16;;;9.87;72.57
84136;BME280;74238;50.566;7.262;2023-12-29T08:12:48;100475.72;;;9.83;73.53
84136;BME280;74238;50.566;7.262;2023-12-29T08:15:13;100497.63;;;9.86;73.43
84136;BME280;74238;50.566;7.262;2023-12-29T08:17:39;100471.41;;;9.74;73.43
84136;BME280;74238;50.566;7.262;2023-12-29T08:20:05;100443.47;;;9.61;73.96
84136;BME280;74238;50.566;7.262;2023-12-29T08:22:31;100473.84;;;9.88;74.02
84136;BME280;74238;50.566;7.262;2023-12-29T08:24:57;100474.75;;;9.88;74.50
84136;BME280;74238;50.566;7.262;2023-12-29T08:27:23;100446.81;;;9.75;73.24
84136;BME280;74238;50.566;7.262;2023-12-29T08:29:50;100477.38;;;9.88;74.21
84136;BME280;74238;50.566;7.262;2023-12-29T08:32:16;100470.34;;;9.89;73.18
84136;BME280;74238;50.566;7.262;2023-12-29T08:34:41;100494.03;;;9.93;74.43
84136;BME280;74238;50.566;7.262;2023-12-29T08:37:06;100488.75;;;9.92;72.91
84136;BME280;74238;50.566;7.262;2023-12-29T08:39:32;100468.72;;;9.77;73.22
84136;BME280;74238;50.566;7.262;2023-12-29T08:41:57;100500.97;;;9.99;73.39
84136;BME280;74238;50.566;7.262;2023-12-29T08:44:22;100507.97;;;10.02;73.97
84136;BME280;74238;50.566;7.262;2023-12-29T08:46:48;100497.38;;;10.03;74.01
84136;BME280;74238;50.566;7.262;2023-12-29T08:49:13;100492.97;;;10.04;74.06
84136;BME280;74238;50.566;7.262;2023-12-29T08:51:38;100499.16;;;10.03;73.40
84136;BME280;74238;50.566;7.262;2023-12-29T08:54:04;100421.50;;;9.62;73.15
84136;BME280;74238;50.566;7.262;2023-12-29T08:56:30;100482.38;;;10.08;73.84
84136;BME280;74238;50.566;7.262;2023-12-29T08:58:55;100486.78;;;10.08;73.38
84136;BME280;74238;50.566;7.262;2023-12-29T09:01:20;100499.00;;;10.12;73.09
84136;BME280;74238;50.566;7.262;2023-12-29T09:03:46;100512.16;;;10.15;73.39
84136;BME280;74238;50.566;7.262;2023-12-29T09:06:11;100485.91;;;10.07;73.13
84136;BME280;74238;50.566;7.262;2023-12-29T09:08:36;100484.13;;;10.08;72.47
84136;BME280;74238;50.566;7.262;2023-12-29T09:11:02;100511.97;;;10.30;71.97
84136;BME280;74238;50.566;7.262;2023-12-29T09:13:27;100453.34;;;10.07;71.96
84136;BME280;74238;50.566;7.262;2023-12-29T09:15:54;100517.88;;;10.48;71.80
84136;BME280;74238;50.566;7.262;2023-12-29T09:18:20;100521.28;;;10.53;71.70
84136;BME280;74238;50.566;7.262;2023-12-29T09:20:45;100515.03;;;10.58;71.55
84136;BME280;74238;50.566;7.262;2023-12-29T09:23:11;100514.16;;;10.59;71.60
84136;BME280;74238;50.566;7.262;2023-12-29T09:25:36;100520.22;;;10.66;71.27
84136;BME280;74238;50.566;7.262;2023-12-29T09:28:02;100512.22;;;10.71;70.63
84136;BME280;74238;50.566;7.262;2023-12-29T09:30:27;100535.06;;;10.72;70.67
84136;BME280;74238;50.566;7.262;2023-12-29T09:32:53;100512.22;;;10.69;70.20
84136;BME280;74238;50.566;7.262;2023-12-29T09:35:18;100491.22;;;10.63;70.04
84136;BME280;74238;50.566;7.262;2023-12-29T09:37:47;100525.25;;;10.83;70.41
84136;BME280;74238;50.566;7.262;2023-12-29T09:40:12;100531.31;;;10.86;70.10
84136;BME280;74238;50.566;7.262;2023-12-29T09:42:38;100538.28;;;10.91;70.23
84136;BME280;74238;50.566;7.262;2023-12-29T09:45:08;100546.13;;;10.95;69.81
84136;BME280;74238;50.566;7.262;2023-12-29T09:47:38;100511.25;;;10.76;69.56
84136;BME280;74238;50.566;7.262;2023-12-29T09:50:05;100542.53;;;11.01;70.23
84136;BME280;74238;50.566;7.262;2023-12-29T09:52:31;100509.34;;;10.84;69.76
84136;BME280;74238;50.566;7.262;2023-12-29T09:54:57;100524.03;;;11.01;70.05
84136;BME280;74238;50.566;7.262;2023-12-29T09:57:23;100520.44;;;11.05;69.59
84136;BME280;74238;50.566;7.262;2023-12-29T09:59:49;100523.91;;;11.07;70.01
84136;BME280;74238;50.566;7.262;2023-12-29T10:02:20;100522.97;;;11.11;70.11
84136;BME280;74238;50.566;7.262;2023-12-29T10:04:47;100519.47;;;11.11;69.68
84136;BME280;74238;50.566;7.262;2023-12-29T10:07:23;100524.63;;;11.18;69.23
84136;BME280;74238;50.566;7.262;2023-12-29T10:09:50;100522.84;;;11.19;68.98
84136;BME280;74238;50.566;7.262;2023-12-29T10:12:19;100530.63;;;11.26;68.87
84136;BME280;74238;50.566;7.262;2023-12-29T10:15:05;100543.78;;;11.29;68.68
84136;BME280;74238;50.566;7.262;2023-12-29T10:20:59;100529.53;;;11.37;68.32
84136;BME280;74238;50.566;7.262;2023-12-29T10:23:40;100498.00;;;11.27;67.56
84136;BME280;74238;50.566;7.262;2023-12-29T10:26:10;100524.03;;;11.47;68.03
84136;BME280;74238;50.566;7.262;2023-12-29T10:28:36;100507.38;;;11.42;67.99
84136;BME280;74238;50.566;7.262;2023-12-29T10:31:01;100531.81;;;11.57;67.53
84136;BME280;74238;50.566;7.262;2023-12-29T10:33:27;100516.81;;;11.57;67.30
84136;BME280;74238;50.566;7.262;2023-12-29T10:35:58;100526.38;;;11.63;67.42
84136;BME280;74238;50.566;7.262;2023-12-29T10:38:27;100491.44;;;11.47;67.77
84136;BME280;74238;50.566;7.262;2023-12-29T10:40:53;100524.47;;;11.69;67.11
84136;BME280;74238;50.566;7.262;2023-12-29T10:43:23;100523.59;;;11.70;66.90
84136;BME280;74238;50.566;7.262;2023-12-29T10:45:48;100490.38;;;11.57;67.30
84136;BME280;74238;50.566;7.262;2023-12-29T10:48:21;100525.03;;;11.85;66.67
84136;BME280;74238;50.566;7.262;2023-12-29T10:50:49;100519.72;;;11.88;66.53
84136;BME280;74238;50.566;7.262;2023-12-29T10:53:15;100530.19;;;11.94;66.86
84136;BME280;74238;50.566;7.262;2023-12-29T10:55:43;100522.19;;;11.96;66.80
84136;BME280;74238;50.566;7.262;2023-12-29T10:58:08;100507.50;;;11.81;67.16
84136;BME280;74238;50.566;7.262;2023-12-29T11:00:34;100469.84;;;11.68;66.11
84136;BME280;74238;50.566;7.262;2023-12-29T11:02:59;100512.53;;;11.95;66.97
84136;BME280;74238;50.566;7.262;2023-12-29T11:05:26;100506.47;;;11.90;66.67
84136;BME280;74238;50.566;7.262;2023-12-29T11:07:53;100509.88;;;11.95;66.93
84136;BME280;74238;50.566;7.262;2023-12-29T11:10:22;100508.13;;;11.94;66.08
84136;BME280;74238;50.566;7.262;2023-12-29T11:12:48;100519.53;;;11.96;66.02
84136;BME280;74238;50.566;7.262;2023-12-29T11:15:15;100509.88;;;11.95;66.83
84136;BME280;74238;50.566;7.262;2023-12-29T11:17:42;100510.59;;;12.03;65.66
84136;BME280;74238;50.566;7.262;2023-12-29T11:20:15;100506.94;;;12.07;66.86
84136;BME280;74238;50.566;7.262;2023-12-29T11:22:42;100491.91;;;12.09;66.03
84136;BME280;74238;50.566;7.262;2023-12-29T11:25:08;100506.88;;;12.10;66.50
84136;BME280;74238;50.566;7.262;2023-12-29T11:27:34;100504.22;;;12.12;66.34
84136;BME280;74238;50.566;7.262;2023-12-29T11:30:02;100492.78;;;12.10;65.26
84136;BME280;74238;50.566;7.262;2023-12-29T11:32:41;100511.31;;;12.10;65.77
84136;BME280;74238;50.566;7.262;2023-12-29T11:35:22;100512.16;;;12.10;66.12
84136;BME280;74238;50.566;7.262;2023-12-29T11:43:38;100496.25;;;12.13;66.39
84136;BME280;74238;50.566;7.262;2023-12-29T11:46:04;100446.47;;;11.90;65.51
84136;BME280;74238;50.566;7.262;2023-12-29T11:48:55;100503.94;;;12.24;65.45
84136;BME280;74238;50.566;7.262;2023-12-29T11:51:41;100491.69;;;12.18;66.45
84136;BME280;74238;50.566;7.262;2023-12-29T11:54:08;100467.31;;;12.04;65.80
84136;BME280;74238;50.566;7.262;2023-12-29T11:56:40;100491.66;;;12.20;65.15
84136;BME280;74238;50.566;7.262;2023-12-29T11:59:19;100508.41;;;12.22;66.34
84136;BME280;74238;50.566;7.262;2023-12-29T12:01:57;100501.38;;;12.19;65.79
84136;BME280;74238;50.566;7.262;2023-12-29T12:04:35;100506.69;;;12.19;66.04
84136;BME280;74238;50.566;7.262;2023-12-29T12:07:02;100499.69;;;12.17;66.22
84136;BME280;74238;50.566;7.262;2023-12-29T12:09:27;100497.06;;;12.15;66.91
84136;BME280;74238;50.566;7.262;2023-12-29T12:11:53;100505.06;;;12.14;66.39
84136;BME280;74238;50.566;7.262;2023-12-29T12:14:53;100482.25;;;12.08;66.35
84136;BME280;74238;50.566;7.262;2023-12-29T12:17:29;100451.03;;;11.82;66.70
84136;BME280;74238;50.566;7.262;2023-12-29T12:20:04;100455.41;;;11.83;66.17
84136;BME280;74238;50.566;7.262;2023-12-29T12:22:31;100487.72;;;11.99;67.27
84136;BME280;74238;50.566;7.262;2023-12-29T12:24:58;100479.75;;;12.01;67.17
84136;BME280;74238;50.566;7.262;2023-12-29T12:27:27;100473.59;;;12.00;66.96
84136;BME280;74238;50.566;7.262;2023-12-29T12:29:54;100472.75;;;11.98;66.15
84136;BME280;74238;50.566;7.262;2023-12-29T12:32:22;100469.34;;;11.93;65.97
84136;BME280;74238;50.566;7.262;2023-12-29T12:34:47;100464.06;;;11.93;66.29
84136;BME280;74238;50.566;7.262;2023-12-29T12:37:18;100415.25;;;11.66;67.25
84136;BME280;74238;50.566;7.262;2023-12-29T12:39:44;100423.81;;;11.77;66.98
84136;BME280;74238;50.566;7.262;2023-12-29T12:42:09;100404.53;;;11.72;66.53
84136;BME280;74238;50.566;7.262;2023-12-29T12:44:38;100421.16;;;11.77;67.14
84136;BME280;74238;50.566;7.262;2023-12-29T12:47:08;100426.44;;;11.79;66.92
84136;BME280;74238;50.566;7.262;2023-12-29T12:49:34;100451.66;;;11.95;66.06
84136;BME280;74238;50.566;7.262;2023-12-29T12:52:00;100433.31;;;11.87;66.20
84136;BME280;74238;50.566;7.262;2023-12-29T12:54:27;100449.63;;;12.06;66.75
84136;BME280;74238;50.566;7.262;2023-12-29T12:56:53;100447.84;;;12.08;66.23
84136;BME280;74238;50.566;7.262;2023-12-29T12:59:19;100452.13;;;12.12;66.29
84136;BME280;74238;50.566;7.262;2023-12-29T13:01:44;100436.56;;;12.00;66.03